sensor_id;sensor_type;location;lat;lon;timestamp;P1;durP1;ratioP1;P2;durP2;ratioP2
9150;SDS011;4610;50.006;7.490;2023-01-05T00:01:59;0.30;;;0.17;;
9150;SDS011;4610;50.006;7.490;2023-01-05T00:04:26;3.43;;;0.27;;
9150;SDS011;4610;50.006;7.490;2023-01-05T00:06:54;0.30;;;0.30;;
9150;SDS011;4610;50.006;7.490;2023-01-05T00:09:21;0.20;;;0.20;;
9150;SDS011;4610;50.006;7.490;2023-01-05T00:11:48;0.17;;;0.17;;
9150;SDS011;4610;50.006;7.490;2023-01-05T00:14:34;0.10;;;0.10;;
9150;SDS011;4610;50.006;7.490;2023-01-05T00:17:33;0.30;;;0.30;;
9150;SDS011;4610;50.006;7.490;2023-01-05T00:20:19;0.30;;;0.30;;
9150;SDS011;4610;50.006;7.490;2023-01-05T00:23:06;2.33;;;0.60;;
9150;SDS011;4610;50.006;7.490;2023-01-05T00:25:35;1.10;;;0.60;;
9150;SDS011;4610;50.006;7.490;2023-01-05T00:28:04;2.03;;;0.80;;
9150;SDS011;4610;50.006;7.490;2023-01-05T00:30:31;1.80;;;0.87;;
9150;SDS011;4610;50.006;7.490;2023-01-05T00:33:01;2.30;;;0.70;;
9150;SDS011;4610;50.006;7.490;2023-01-05T00:35:28;3.40;;;0.80;;
9150;SDS011;4610;50.006;7.490;2023-01-05T00:37:55;2.40;;;0.97;;
9150;SDS011;4610;50.006;7.490;2023-01-05T00:40:23;1.73;;;0.70;;
9150;SDS011;4610;50.006;7.490;2023-01-05T00:42:50;3.00;;;1.17;;
9150;SDS011;4610;50.006;7.490;2023-01-05T00:45:17;3.63;;;0.90;;
9150;SDS011;4610;50.006;7.490;2023-01-05T00:47:46;2.17;;;0.90;;
9150;SDS011;4610;50.006;7.490;2023-01-05T00:50:14;4.03;;;0.90;;
9150;SDS011;4610;50.006;7.490;2023-01-05T00:52:42;1.97;;;0.77;;
9150;SDS011;4610;50.006;7.490;2023-01-05T00:55:09;6.27;;;1.43;;
9150;SDS011;4610;50.006;7.490;2023-01-05T00:57:39;3.17;;;1.03;;
9150;SDS011;4610;50.006;7.490;2023-01-05T01:00:09;5.17;;;1.30;;
9150;SDS011;4610;50.006;7.490;2023-01-05T01:02:38;5.73;;;1.10;;
9150;SDS011;4610;50.006;7.490;2023-01-05T01:05:06;4.10;;;1.30;;
9150;SDS011;4610;50.006;7.490;2023-01-05T01:07:33;2.63;;;1.10;;
9150;SDS011;4610;50.006;7.490;2023-01-05T01:10:01;7.40;;;1.97;;
9150;SDS011;4610;50.006;7.490;2023-01-05T01:12:28;4.57;;;1.33;;
9150;SDS011;4610;50.006;7.490;2023-01-05T01:14:57;3.70;;;0.93;;
9150;SDS011;4610;50.006;7.490;2023-01-05T01:17:25;3.30;;;0.80;;
9150;SDS011;4610;50.006;7.490;2023-01-05T01:19:52;4.90;;;1.30;;
9150;SDS011;4610;50.006;7.490;2023-01-05T01:22:19;6.43;;;1.37;;
9150;SDS011;4610;50.006;7.490;2023-01-05T01:24:46;4.93;;;1.13;;
9150;SDS011;4610;50.006;7.490;2023-01-05T01:27:12;7.77;;;1.30;;
9150;SDS011;4610;50.006;7.490;2023-01-05T01:29:39;10.80;;;1.73;;
9150;SDS011;4610;50.006;7.490;2023-01-05T01:32:08;6.40;;;1.40;;
9150;SDS011;4610;50.006;7.490;2023-01-05T01:34:34;4.50;;;1.23;;
9150;SDS011;4610;50.006;7.490;2023-01-05T01:37:03;4.77;;;1.33;;
9150;SDS011;4610;50.006;7.490;2023-01-05T01:39:34;6.67;;;2.07;;
9150;SDS011;4610;50.006;7.490;2023-01-05T01:42:00;11.70;;;1.97;;
9150;SDS011;4610;50.006;7.490;2023-01-05T01:47:18;7.83;;;1.43;;
9150;SDS011;4610;50.006;7.490;2023-01-05T01:49:51;6.90;;;1.60;;
9150;SDS011;4610;50.006;7.490;2023-01-05T01:52:20;8.30;;;1.37;;
9150;SDS011;4610;50.006;7.490;2023-01-05T01:54:49;5.90;;;1.53;;
9150;SDS011;4610;50.006;7.490;2023-01-05T01:57:16;6.53;;;1.57;;
9150;SDS011;4610;50.006;7.490;2023-01-05T01:59:44;8.33;;;1.87;;
9150;SDS011;4610;50.006;7.490;2023-01-05T02:02:11;9.10;;;2.23;;
9150;SDS011;4610;50.006;7.490;2023-01-05T02:04:39;10.40;;;1.77;;
9150;SDS011;4610;50.006;7.490;2023-01-05T02:07:08;8.40;;;2.13;;
9150;SDS011;4610;50.006;7.490;2023-01-05T02:09:37;7.83;;;1.50;;
9150;SDS011;4610;50.006;7.490;2023-01-05T02:12:05;6.17;;;1.63;;
9150;SDS011;4610;50.006;7.490;2023-01-05T02:14:43;12.63;;;2.30;;
9150;SDS011;4610;50.006;7.490;2023-01-05T02:17:20;6.93;;;2.00;;
9150;SDS011;4610;50.006;7.490;2023-01-05T02:26:16;8.43;;;1.80;;
9150;SDS011;4610;50.006;7.490;2023-01-05T02:29:11;9.07;;;1.60;;
9150;SDS011;4610;50.006;7.490;2023-01-05T02:31:57;14.07;;;2.30;;
9150;SDS011;4610;50.006;7.490;2023-01-05T02:34:29;8.50;;;1.70;;
9150;SDS011;4610;50.006;7.490;2023-01-05T02:37:02;15.97;;;3.20;;
9150;SDS011;4610;50.006;7.490;2023-01-05T02:39:37;9.00;;;2.03;;
9150;SDS011;4610;50.006;7.490;2023-01-05T02:42:11;6.43;;;1.90;;
9150;SDS011;4610;50.006;7.490;2023-01-05T02:44:40;9.90;;;2.67;;
9150;SDS011;4610;50.006;7.490;2023-01-05T02:50:05;12.43;;;2.53;;
9150;SDS011;4610;50.006;7.490;2023-01-05T02:52:38;6.50;;;1.87;;
9150;SDS011;4610;50.006;7.490;2023-01-05T02:55:09;11.57;;;2.37;;
9150;SDS011;4610;50.006;7.490;2023-01-05T02:57:40;13.57;;;2.17;;
9150;SDS011;4610;50.006;7.490;2023-01-05T03:00:12;6.03;;;1.83;;
9150;SDS011;4610;50.006;7.490;2023-01-05T03:02:44;10.07;;;1.80;;
9150;SDS011;4610;50.006;7.490;2023-01-05T03:05:15;11.27;;;2.43;;
9150;SDS011;4610;50.006;7.490;2023-01-05T03:07:45;8.40;;;2.10;;
9150;SDS011;4610;50.006;7.490;2023-01-05T03:10:15;10.23;;;2.83;;
9150;SDS011;4610;50.006;7.490;2023-01-05T03:13:00;11.53;;;2.07;;
9150;SDS011;4610;50.006;7.490;2023-01-05T03:15:49;18.57;;;2.37;;
9150;SDS011;4610;50.006;7.490;2023-01-05T03:18:24;8.10;;;2.03;;
9150;SDS011;4610;50.006;7.490;2023-01-05T03:20:52;8.90;;;2.13;;
9150;SDS011;4610;50.006;7.490;2023-01-05T03:23:19;14.47;;;2.33;;
9150;SDS011;4610;50.006;7.490;2023-01-05T03:26:05;10.23;;;2.10;;
9150;SDS011;4610;50.006;7.490;2023-01-05T03:28:52;13.60;;;2.60;;
9150;SDS011;4610;50.006;7.490;2023-01-05T03:31:40;10.10;;;2.10;;
9150;SDS011;4610;50.006;7.490;2023-01-05T03:34:33;12.63;;;2.27;;
9150;SDS011;4610;50.006;7.490;2023-01-05T03:37:27;12.67;;;2.43;;
9150;SDS011;4610;50.006;7.490;2023-01-05T03:39:58;13.47;;;2.27;;
9150;SDS011;4610;50.006;7.490;2023-01-05T03:42:27;13.93;;;2.40;;
9150;SDS011;4610;50.006;7.490;2023-01-05T03:44:55;11.67;;;2.00;;
9150;SDS011;4610;50.006;7.490;2023-01-05T03:47:22;14.13;;;2.20;;
9150;SDS011;4610;50.006;7.490;2023-01-05T03:49:51;8.93;;;2.00;;
9150;SDS011;4610;50.006;7.490;2023-01-05T03:52:17;11.47;;;2.20;;
9150;SDS011;4610;50.006;7.490;2023-01-05T03:54:44;14.17;;;2.90;;
9150;SDS011;4610;50.006;7.490;2023-01-05T03:57:11;18.00;;;2.77;;
9150;SDS011;4610;50.006;7.490;2023-01-05T03:59:38;14.90;;;2.93;;
9150;SDS011;4610;50.006;7.490;2023-01-05T04:02:05;17.40;;;2.60;;
9150;SDS011;4610;50.006;7.490;2023-01-05T04:04:31;11.93;;;2.30;;
9150;SDS011;4610;50.006;7.490;2023-01-05T04:07:00;11.27;;;1.73;;
9150;SDS011;4610;50.006;7.490;2023-01-05T04:09:26;10.07;;;2.13;;
9150;SDS011;4610;50.006;7.490;2023-01-05T04:11:53;9.73;;;2.33;;
9150;SDS011;4610;50.006;7.490;2023-01-05T04:14:20;10.07;;;2.20;;
9150;SDS011;4610;50.006;7.490;2023-01-05T04:16:47;11.93;;;2.20;;
9150;SDS011;4610;50.006;7.490;2023-01-05T04:19:14;14.07;;;2.60;;
9150;SDS011;4610;50.006;7.490;2023-01-05T04:21:41;9.37;;;1.97;;
9150;SDS011;4610;50.006;7.490;2023-01-05T04:24:09;8.80;;;2.20;;
9150;SDS011;4610;50.006;7.490;2023-01-05T04:26:36;15.03;;;2.97;;
9150;SDS011;4610;50.006;7.490;2023-01-05T04:29:05;13.13;;;2.60;;
9150;SDS011;4610;50.006;7.490;2023-01-05T04:31:32;10.00;;;2.23;;
9150;SDS011;4610;50.006;7.490;2023-01-05T04:33:59;9.60;;;2.17;;
9150;SDS011;4610;50.006;7.490;2023-01-05T04:36:26;8.70;;;2.00;;
9150;SDS011;4610;50.006;7.490;2023-01-05T04:38:53;11.43;;;2.20;;
9150;SDS011;4610;50.006;7.490;2023-01-05T04:41:21;7.77;;;1.93;;
9150;SDS011;4610;50.006;7.490;2023-01-05T04:43:48;13.67;;;2.37;;
9150;SDS011;4610;50.006;7.490;2023-01-05T04:46:15;8.43;;;2.40;;
9150;SDS011;4610;50.006;7.490;2023-01-05T04:48:42;16.67;;;2.30;;
9150;SDS011;4610;50.006;7.490;2023-01-05T04:51:08;10.80;;;2.27;;
9150;SDS011;4610;50.006;7.490;2023-01-05T04:53:35;11.73;;;2.30;;
9150;SDS011;4610;50.006;7.490;2023-01-05T04:56:02;9.03;;;2.07;;
9150;SDS011;4610;50.006;7.490;2023-01-05T04:58:30;9.67;;;2.10;;
9150;SDS011;4610;50.006;7.490;2023-01-05T05:00:57;14.77;;;2.63;;
9150;SDS011;4610;50.006;7.490;2023-01-05T05:03:24;8.47;;;2.10;;
9150;SDS011;4610;50.006;7.490;2023-01-05T05:05:51;11.57;;;2.50;;
9150;SDS011;4610;50.006;7.490;2023-01-05T05:08:18;12.10;;;2.40;;
9150;SDS011;4610;50.006;7.490;2023-01-05T05:10:44;14.90;;;2.27;;
9150;SDS011;4610;50.006;7.490;2023-01-05T05:13:11;11.43;;;2.20;;
9150;SDS011;4610;50.006;7.490;2023-01-05T05:15:39;10.43;;;2.17;;
9150;SDS011;4610;50.006;7.490;2023-01-05T05:18:09;11.00;;;2.07;;
9150;SDS011;4610;50.006;7.490;2023-01-05T05:20:36;9.07;;;1.93;;
9150;SDS011;4610;50.006;7.490;2023-01-05T05:23:05;10.10;;;1.93;;
9150;SDS011;4610;50.006;7.490;2023-01-05T05:25:33;9.23;;;2.53;;
9150;SDS011;4610;50.006;7.490;2023-01-05T05:28:01;9.63;;;2.13;;
9150;SDS011;4610;50.006;7.490;2023-01-05T05:30:28;9.10;;;1.90;;
9150;SDS011;4610;50.006;7.490;2023-01-05T05:32:56;8.87;;;1.83;;
9150;SDS011;4610;50.006;7.490;2023-01-05T05:35:23;13.53;;;2.03;;
9150;SDS011;4610;50.006;7.490;2023-01-05T05:37:50;13.27;;;2.00;;
9150;SDS011;4610;50.006;7.490;2023-01-05T05:40:17;9.00;;;2.20;;
9150;SDS011;4610;50.006;7.490;2023-01-05T05:42:43;10.90;;;2.10;;
9150;SDS011;4610;50.006;7.490;2023-01-05T05:45:10;7.17;;;1.60;;
9150;SDS011;4610;50.006;7.490;2023-01-05T05:47:37;13.73;;;2.00;;
9150;SDS011;4610;50.006;7.490;2023-01-05T05:50:06;7.00;;;1.83;;
9150;SDS011;4610;50.006;7.490;2023-01-05T05:52:33;7.37;;;1.63;;
9150;SDS011;4610;50.006;7.490;2023-01-05T05:55:00;11.03;;;2.03;;
9150;SDS011;4610;50.006;7.490;2023-01-05T05:57:27;8.93;;;1.80;;
9150;SDS011;4610;50.006;7.490;2023-01-05T05:59:53;8.27;;;1.90;;
9150;SDS011;4610;50.006;7.490;2023-01-05T06:02:20;5.93;;;1.67;;
9150;SDS011;4610;50.006;7.490;2023-01-05T06:04:47;12.70;;;2.10;;
9150;SDS011;4610;50.006;7.490;2023-01-05T06:07:15;9.53;;;1.87;;
9150;SDS011;4610;50.006;7.490;2023-01-05T06:09:42;8.27;;;1.83;;
9150;SDS011;4610;50.006;7.490;2023-01-05T06:12:09;6.87;;;1.90;;
9150;SDS011;4610;50.006;7.490;2023-01-05T06:14:36;9.13;;;1.60;;
9150;SDS011;4610;50.006;7.490;2023-01-05T06:17:03;10.70;;;2.20;;
9150;SDS011;4610;50.006;7.490;2023-01-05T06:19:29;7.10;;;1.50;;
9150;SDS011;4610;50.006;7.490;2023-01-05T06:21:56;8.20;;;1.90;;
9150;SDS011;4610;50.006;7.490;2023-01-05T06:24:24;9.87;;;2.00;;
9150;SDS011;4610;50.006;7.490;2023-01-05T06:26:51;6.60;;;1.83;;
9150;SDS011;4610;50.006;7.490;2023-01-05T06:29:18;14.17;;;2.10;;
9150;SDS011;4610;50.006;7.490;2023-01-05T06:31:45;9.37;;;1.83;;
9150;SDS011;4610;50.006;7.490;2023-01-05T06:34:12;3.33;;;1.37;;
9150;SDS011;4610;50.006;7.490;2023-01-05T06:36:39;7.27;;;2.00;;
9150;SDS011;4610;50.006;7.490;2023-01-05T06:39:05;10.23;;;1.87;;
9150;SDS011;4610;50.006;7.490;2023-01-05T06:41:34;7.73;;;1.83;;
9150;SDS011;4610;50.006;7.490;2023-01-05T06:44:00;6.97;;;1.43;;
9150;SDS011;4610;50.006;7.490;2023-01-05T06:46:27;10.23;;;1.57;;
9150;SDS011;4610;50.006;7.490;2023-01-05T06:48:54;9.20;;;1.80;;
9150;SDS011;4610;50.006;7.490;2023-01-05T06:51:21;5.33;;;1.97;;
9150;SDS011;4610;50.006;7.490;2023-01-05T06:53:48;11.00;;;1.60;;
9150;SDS011;4610;50.006;7.490;2023-01-05T06:56:15;7.93;;;1.47;;
9150;SDS011;4610;50.006;7.490;2023-01-05T06:58:43;5.93;;;1.50;;
9150;SDS011;4610;50.006;7.490;2023-01-05T07:01:10;10.37;;;2.03;;
9150;SDS011;4610;50.006;7.490;2023-01-05T07:03:36;9.53;;;2.20;;
9150;SDS011;4610;50.006;7.490;2023-01-05T07:06:03;10.57;;;1.97;;
9150;SDS011;4610;50.006;7.490;2023-01-05T07:08:30;9.33;;;2.27;;
9150;SDS011;4610;50.006;7.490;2023-01-05T07:10:57;8.73;;;2.37;;
9150;SDS011;4610;50.006;7.490;2023-01-05T07:13:24;10.13;;;2.00;;
9150;SDS011;4610;50.006;7.490;2023-01-05T07:15:53;8.97;;;1.80;;
9150;SDS011;4610;50.006;7.490;2023-01-05T07:18:21;10.50;;;2.30;;
9150;SDS011;4610;50.006;7.490;2023-01-05T07:20:48;11.60;;;2.30;;
9150;SDS011;4610;50.006;7.490;2023-01-05T07:23:15;12.33;;;2.47;;
9150;SDS011;4610;50.006;7.490;2023-01-05T07:25:42;12.93;;;2.07;;
9150;SDS011;4610;50.006;7.490;2023-01-05T07:28:09;12.70;;;2.33;;
9150;SDS011;4610;50.006;7.490;2023-01-05T07:30:35;14.07;;;2.10;;
9150;SDS011;4610;50.006;7.490;2023-01-05T07:33:03;12.10;;;2.20;;
9150;SDS011;4610;50.006;7.490;2023-01-05T07:35:31;10.67;;;2.23;;
9150;SDS011;4610;50.006;7.490;2023-01-05T07:37:58;13.37;;;2.10;;
9150;SDS011;4610;50.006;7.490;2023-01-05T07:40:24;7.33;;;2.60;;
9150;SDS011;4610;50.006;7.490;2023-01-05T07:42:52;10.67;;;2.70;;
9150;SDS011;4610;50.006;7.490;2023-01-05T07:45:19;9.10;;;2.07;;
9150;SDS011;4610;50.006;7.490;2023-01-05T07:47:46;11.90;;;2.53;;
9150;SDS011;4610;50.006;7.490;2023-01-05T07:50:14;8.30;;;2.03;;
9150;SDS011;4610;50.006;7.490;2023-01-05T07:52:41;10.70;;;2.50;;
9150;SDS011;4610;50.006;7.490;2023-01-05T07:55:08;8.63;;;1.93;;
9150;SDS011;4610;50.006;7.490;2023-01-05T07:57:35;9.63;;;1.90;;
9150;SDS011;4610;50.006;7.490;2023-01-05T08:00:02;8.37;;;2.23;;
9150;SDS011;4610;50.006;7.490;2023-01-05T08:02:30;9.07;;;2.10;;
9150;SDS011;4610;50.006;7.490;2023-01-05T08:04:57;12.73;;;2.00;;
9150;SDS011;4610;50.006;7.490;2023-01-05T08:07:25;10.27;;;1.60;;
9150;SDS011;4610;50.006;7.490;2023-01-05T08:09:52;12.17;;;2.03;;
9150;SDS011;4610;50.006;7.490;2023-01-05T08:12:36;12.23;;;2.27;;
9150;SDS011;4610;50.006;7.490;2023-01-05T08:15:23;10.43;;;2.20;;
9150;SDS011;4610;50.006;7.490;2023-01-05T08:17:50;12.87;;;2.10;;
9150;SDS011;4610;50.006;7.490;2023-01-05T08:20:17;12.33;;;1.90;;
9150;SDS011;4610;50.006;7.490;2023-01-05T08:22:49;9.37;;;1.83;;
9150;SDS011;4610;50.006;7.490;2023-01-05T08:25:16;9.77;;;1.93;;
9150;SDS011;4610;50.006;7.490;2023-01-05T08:27:43;11.17;;;1.60;;
9150;SDS011;4610;50.006;7.490;2023-01-05T08:30:11;11.13;;;2.20;;
9150;SDS011;4610;50.006;7.490;2023-01-05T08:32:38;17.17;;;2.47;;
9150;SDS011;4610;50.006;7.490;2023-01-05T08:35:05;6.67;;;1.90;;
9150;SDS011;4610;50.006;7.490;2023-01-05T08:37:33;10.33;;;2.00;;
9150;SDS011;4610;50.006;7.490;2023-01-05T08:40:01;13.77;;;2.17;;
9150;SDS011;4610;50.006;7.490;2023-01-05T08:42:28;8.83;;;2.20;;
9150;SDS011;4610;50.006;7.490;2023-01-05T08:44:55;13.57;;;2.37;;
9150;SDS011;4610;50.006;7.490;2023-01-05T08:47:21;8.77;;;2.37;;
9150;SDS011;4610;50.006;7.490;2023-01-05T08:49:48;18.00;;;3.07;;
9150;SDS011;4610;50.006;7.490;2023-01-05T08:52:15;13.53;;;2.83;;
9150;SDS011;4610;50.006;7.490;2023-01-05T08:54:42;7.37;;;1.87;;
9150;SDS011;4610;50.006;7.490;2023-01-05T08:57:10;8.57;;;1.90;;
9150;SDS011;4610;50.006;7.490;2023-01-05T08:59:37;12.83;;;2.73;;
9150;SDS011;4610;50.006;7.490;2023-01-05T09:02:04;13.90;;;2.97;;
9150;SDS011;4610;50.006;7.490;2023-01-05T09:04:32;11.07;;;2.33;;
9150;SDS011;4610;50.006;7.490;2023-01-05T09:06:58;13.50;;;2.17;;
9150;SDS011;4610;50.006;7.490;2023-01-05T09:09:25;9.87;;;2.53;;
9150;SDS011;4610;50.006;7.490;2023-01-05T09:11:52;8.87;;;2.17;;
9150;SDS011;4610;50.006;7.490;2023-01-05T09:14:20;14.20;;;2.83;;
9150;SDS011;4610;50.006;7.490;2023-01-05T09:16:47;11.27;;;2.50;;
9150;SDS011;4610;50.006;7.490;2023-01-05T09:19:15;17.17;;;2.73;;
9150;SDS011;4610;50.006;7.490;2023-01-05T09:21:42;12.23;;;2.50;;
9150;SDS011;4610;50.006;7.490;2023-01-05T09:24:09;12.47;;;3.07;;
9150;SDS011;4610;50.006;7.490;2023-01-05T09:26:37;16.13;;;3.00;;
9150;SDS011;4610;50.006;7.490;2023-01-05T09:29:04;13.20;;;3.00;;
9150;SDS011;4610;50.006;7.490;2023-01-05T09:31:32;10.67;;;2.70;;
9150;SDS011;4610;50.006;7.490;2023-01-05T09:33:59;18.93;;;3.13;;
9150;SDS011;4610;50.006;7.490;2023-01-05T09:36:26;14.03;;;3.03;;
9150;SDS011;4610;50.006;7.490;2023-01-05T09:38:53;14.60;;;2.17;;
9150;SDS011;4610;50.006;7.490;2023-01-05T09:41:21;19.80;;;3.00;;
9150;SDS011;4610;50.006;7.490;2023-01-05T09:43:51;19.73;;;3.27;;
9150;SDS011;4610;50.006;7.490;2023-01-05T09:46:24;15.47;;;2.63;;
9150;SDS011;4610;50.006;7.490;2023-01-05T09:48:56;13.70;;;2.70;;
9150;SDS011;4610;50.006;7.490;2023-01-05T09:51:26;15.57;;;2.90;;
9150;SDS011;4610;50.006;7.490;2023-01-05T09:53:53;13.83;;;2.60;;
9150;SDS011;4610;50.006;7.490;2023-01-05T09:56:24;16.63;;;2.90;;
9150;SDS011;4610;50.006;7.490;2023-01-05T09:58:55;14.53;;;3.03;;
9150;SDS011;4610;50.006;7.490;2023-01-05T10:01:29;15.90;;;2.80;;
9150;SDS011;4610;50.006;7.490;2023-01-05T10:04:00;17.60;;;3.33;;
9150;SDS011;4610;50.006;7.490;2023-01-05T10:06:31;21.53;;;3.13;;
9150;SDS011;4610;50.006;7.490;2023-01-05T10:09:01;20.70;;;2.93;;
9150;SDS011;4610;50.006;7.490;2023-01-05T10:11:30;15.10;;;3.37;;
9150;SDS011;4610;50.006;7.490;2023-01-05T10:14:22;16.40;;;3.03;;
9150;SDS011;4610;50.006;7.490;2023-01-05T10:16:53;23.07;;;3.40;;
9150;SDS011;4610;50.006;7.490;2023-01-05T10:19:22;20.17;;;3.33;;
9150;SDS011;4610;50.006;7.490;2023-01-05T10:21:51;16.93;;;3.20;;
9150;SDS011;4610;50.006;7.490;2023-01-05T10:24:26;18.33;;;2.83;;
9150;SDS011;4610;50.006;7.490;2023-01-05T10:27:02;19.83;;;4.23;;
9150;SDS011;4610;50.006;7.490;2023-01-05T10:29:35;15.33;;;2.67;;
9150;SDS011;4610;50.006;7.490;2023-01-05T10:32:08;17.47;;;2.40;;
9150;SDS011;4610;50.006;7.490;2023-01-05T10:34:48;22.90;;;3.20;;
9150;SDS011;4610;50.006;7.490;2023-01-05T10:40:23;17.07;;;3.23;;
9150;SDS011;4610;50.006;7.490;2023-01-05T10:43:03;16.50;;;2.60;;
9150;SDS011;4610;50.006;7.490;2023-01-05T10:45:49;13.80;;;2.90;;
9150;SDS011;4610;50.006;7.490;2023-01-05T10:48:17;13.90;;;2.53;;
9150;SDS011;4610;50.006;7.490;2023-01-05T10:50:49;12.73;;;2.93;;
9150;SDS011;4610;50.006;7.490;2023-01-05T10:53:20;15.23;;;3.07;;
9150;SDS011;4610;50.006;7.490;2023-01-05T10:55:50;14.03;;;3.07;;
9150;SDS011;4610;50.006;7.490;2023-01-05T10:58:23;12.70;;;2.80;;
9150;SDS011;4610;50.006;7.490;2023-01-05T11:00:51;15.10;;;2.87;;
9150;SDS011;4610;50.006;7.490;2023-01-05T11:03:24;18.93;;;2.97;;
9150;SDS011;4610;50.006;7.490;2023-01-05T11:05:56;13.50;;;3.03;;
9150;SDS011;4610;50.006;7.490;2023-01-05T11:08:24;10.87;;;2.40;;
9150;SDS011;4610;50.006;7.490;2023-01-05T11:10:54;16.87;;;2.97;;
9150;SDS011;4610;50.006;7.490;2023-01-05T11:13:32;20.03;;;3.43;;
9150;SDS011;4610;50.006;7.490;2023-01-05T11:16:07;13.83;;;2.53;;
9150;SDS011;4610;50.006;7.490;2023-01-05T11:18:40;15.10;;;2.50;;
9150;SDS011;4610;50.006;7.490;2023-01-05T11:21:15;15.90;;;4.20;;
9150;SDS011;4610;50.006;7.490;2023-01-05T11:23:43;15.50;;;2.97;;
9150;SDS011;4610;50.006;7.490;2023-01-05T11:26:19;12.50;;;2.53;;
9150;SDS011;4610;50.006;7.490;2023-01-05T11:28:59;17.43;;;3.10;;
9150;SDS011;4610;50.006;7.490;2023-01-05T11:31:36;14.17;;;2.80;;
9150;SDS011;4610;50.006;7.490;2023-01-05T11:34:07;14.53;;;2.50;;
9150;SDS011;4610;50.006;7.490;2023-01-05T11:36:49;13.30;;;2.40;;
9150;SDS011;4610;50.006;7.490;2023-01-05T11:39:18;16.43;;;2.57;;
9150;SDS011;4610;50.006;7.490;2023-01-05T11:41:52;15.17;;;2.80;;
9150;SDS011;4610;50.006;7.490;2023-01-05T11:44:29;14.70;;;2.67;;
9150;SDS011;4610;50.006;7.490;2023-01-05T11:46:58;14.43;;;2.57;;
9150;SDS011;4610;50.006;7.490;2023-01-05T11:49:25;13.10;;;2.40;;
9150;SDS011;4610;50.006;7.490;2023-01-05T11:51:53;13.23;;;3.07;;
9150;SDS011;4610;50.006;7.490;2023-01-05T11:54:32;18.97;;;2.50;;
9150;SDS011;4610;50.006;7.490;2023-01-05T11:57:11;13.67;;;2.50;;
9150;SDS011;4610;50.006;7.490;2023-01-05T11:59:40;17.57;;;3.10;;
9150;SDS011;4610;50.006;7.490;2023-01-05T12:02:14;17.60;;;3.20;;
9150;SDS011;4610;50.006;7.490;2023-01-05T12:05:06;17.97;;;3.20;;
9150;SDS011;4610;50.006;7.490;2023-01-05T12:07:56;10.40;;;1.90;;
9150;SDS011;4610;50.006;7.490;2023-01-05T12:10:39;12.30;;;2.80;;
9150;SDS011;4610;50.006;7.490;2023-01-05T12:13:44;15.23;;;2.47;;
9150;SDS011;4610;50.006;7.490;2023-01-05T12:16:41;9.63;;;2.10;;
9150;SDS011;4610;50.006;7.490;2023-01-05T12:22:17;17.97;;;2.60;;
9150;SDS011;4610;50.006;7.490;2023-01-05T12:25:03;15.27;;;2.93;;
9150;SDS011;4610;50.006;7.490;2023-01-05T12:27:47;16.57;;;2.27;;
9150;SDS011;4610;50.006;7.490;2023-01-05T12:30:28;13.40;;;2.87;;
9150;SDS011;4610;50.006;7.490;2023-01-05T12:36:01;14.60;;;2.80;;
9150;SDS011;4610;50.006;7.490;2023-01-05T12:38:54;16.50;;;2.77;;
9150;SDS011;4610;50.006;7.490;2023-01-05T12:41:35;10.97;;;2.80;;
9150;SDS011;4610;50.006;7.490;2023-01-05T12:44:16;10.03;;;2.47;;
9150;SDS011;4610;50.006;7.490;2023-01-05T12:47:01;15.27;;;2.60;;
9150;SDS011;4610;50.006;7.490;2023-01-05T12:49:41;12.33;;;2.77;;
9150;SDS011;4610;50.006;7.490;2023-01-05T12:52:12;18.87;;;3.73;;
9150;SDS011;4610;50.006;7.490;2023-01-05T12:54:46;12.10;;;2.57;;
9150;SDS011;4610;50.006;7.490;2023-01-05T12:57:21;17.43;;;2.80;;
9150;SDS011;4610;50.006;7.490;2023-01-05T12:59:51;16.63;;;3.03;;
9150;SDS011;4610;50.006;7.490;2023-01-05T13:02:29;9.87;;;2.50;;
9150;SDS011;4610;50.006;7.490;2023-01-05T13:05:02;12.40;;;3.50;;
9150;SDS011;4610;50.006;7.490;2023-01-05T13:07:35;12.07;;;2.80;;
9150;SDS011;4610;50.006;7.490;2023-01-05T13:10:14;14.23;;;2.43;;
9150;SDS011;4610;50.006;7.490;2023-01-05T13:12:46;13.83;;;2.93;;
9150;SDS011;4610;50.006;7.490;2023-01-05T13:15:19;11.23;;;2.50;;
9150;SDS011;4610;50.006;7.490;2023-01-05T13:17:49;17.00;;;3.03;;
9150;SDS011;4610;50.006;7.490;2023-01-05T13:20:22;15.97;;;3.00;;
9150;SDS011;4610;50.006;7.490;2023-01-05T13:22:53;12.43;;;3.17;;
9150;SDS011;4610;50.006;7.490;2023-01-05T13:25:24;11.87;;;2.57;;
9150;SDS011;4610;50.006;7.490;2023-01-05T13:27:56;10.57;;;2.53;;
9150;SDS011;4610;50.006;7.490;2023-01-05T13:30:23;13.13;;;2.43;;
9150;SDS011;4610;50.006;7.490;2023-01-05T13:32:57;10.87;;;2.43;;
9150;SDS011;4610;50.006;7.490;2023-01-05T13:35:52;17.17;;;3.20;;
9150;SDS011;4610;50.006;7.490;2023-01-05T13:38:39;16.37;;;3.20;;
9150;SDS011;4610;50.006;7.490;2023-01-05T13:41:32;14.40;;;3.47;;
9150;SDS011;4610;50.006;7.490;2023-01-05T13:44:25;20.03;;;3.33;;
9150;SDS011;4610;50.006;7.490;2023-01-05T13:47:15;15.00;;;2.43;;
9150;SDS011;4610;50.006;7.490;2023-01-05T13:49:54;15.37;;;3.40;;
9150;SDS011;4610;50.006;7.490;2023-01-05T13:52:49;14.47;;;2.63;;
9150;SDS011;4610;50.006;7.490;2023-01-05T13:55:24;15.73;;;3.07;;
9150;SDS011;4610;50.006;7.490;2023-01-05T13:57:52;18.80;;;3.13;;
9150;SDS011;4610;50.006;7.490;2023-01-05T14:00:23;14.70;;;3.07;;
9150;SDS011;4610;50.006;7.490;2023-01-05T14:02:58;11.80;;;2.67;;
9150;SDS011;4610;50.006;7.490;2023-01-05T14:05:31;15.73;;;2.67;;
9150;SDS011;4610;50.006;7.490;2023-01-05T14:08:04;15.37;;;2.50;;
9150;SDS011;4610;50.006;7.490;2023-01-05T14:10:39;9.73;;;2.67;;
9150;SDS011;4610;50.006;7.490;2023-01-05T14:13:10;12.40;;;2.60;;
9150;SDS011;4610;50.006;7.490;2023-01-05T14:19:23;14.33;;;2.87;;
9150;SDS011;4610;50.006;7.490;2023-01-05T14:22:24;16.20;;;3.07;;
9150;SDS011;4610;50.006;7.490;2023-01-05T14:28:21;15.90;;;2.67;;
9150;SDS011;4610;50.006;7.490;2023-01-05T14:34:13;13.87;;;3.13;;
9150;SDS011;4610;50.006;7.490;2023-01-05T14:37:03;13.63;;;2.90;;
9150;SDS011;4610;50.006;7.490;2023-01-05T14:39:34;18.80;;;2.80;;
9150;SDS011;4610;50.006;7.490;2023-01-05T14:42:14;11.37;;;2.67;;
9150;SDS011;4610;50.006;7.490;2023-01-05T14:44:44;16.30;;;3.03;;
9150;SDS011;4610;50.006;7.490;2023-01-05T14:47:14;17.07;;;2.50;;
9150;SDS011;4610;50.006;7.490;2023-01-05T14:49:50;14.93;;;2.97;;
9150;SDS011;4610;50.006;7.490;2023-01-05T14:55:21;17.53;;;2.67;;
9150;SDS011;4610;50.006;7.490;2023-01-05T14:57:50;14.70;;;3.07;;
9150;SDS011;4610;50.006;7.490;2023-01-05T15:00:21;11.10;;;2.70;;
9150;SDS011;4610;50.006;7.490;2023-01-05T15:02:59;13.87;;;2.57;;
9150;SDS011;4610;50.006;7.490;2023-01-05T15:05:32;9.57;;;2.47;;
9150;SDS011;4610;50.006;7.490;2023-01-05T15:08:05;14.10;;;2.80;;
9150;SDS011;4610;50.006;7.490;2023-01-05T15:10:52;18.30;;;3.17;;
9150;SDS011;4610;50.006;7.490;2023-01-05T15:16:59;13.87;;;2.67;;
9150;SDS011;4610;50.006;7.490;2023-01-05T15:19:59;9.87;;;2.87;;
9150;SDS011;4610;50.006;7.490;2023-01-05T15:22:48;12.47;;;2.63;;
9150;SDS011;4610;50.006;7.490;2023-01-05T15:25:37;11.50;;;2.60;;
9150;SDS011;4610;50.006;7.490;2023-01-05T15:28:32;16.63;;;2.60;;
9150;SDS011;4610;50.006;7.490;2023-01-05T15:31:25;10.50;;;2.47;;
9150;SDS011;4610;50.006;7.490;2023-01-05T15:34:00;19.73;;;3.60;;
9150;SDS011;4610;50.006;7.490;2023-01-05T15:36:38;9.80;;;2.47;;
9150;SDS011;4610;50.006;7.490;2023-01-05T15:39:22;8.70;;;2.07;;
9150;SDS011;4610;50.006;7.490;2023-01-05T15:41:50;13.57;;;2.73;;
9150;SDS011;4610;50.006;7.490;2023-01-05T15:44:18;8.60;;;2.30;;
9150;SDS011;4610;50.006;7.490;2023-01-05T15:46:46;14.07;;;2.40;;
9150;SDS011;4610;50.006;7.490;2023-01-05T15:49:17;12.43;;;2.50;;
9150;SDS011;4610;50.006;7.490;2023-01-05T15:51:50;14.33;;;2.93;;
9150;SDS011;4610;50.006;7.490;2023-01-05T15:54:23;14.33;;;2.53;;
9150;SDS011;4610;50.006;7.490;2023-01-05T15:56:51;11.77;;;2.80;;
9150;SDS011;4610;50.006;7.490;2023-01-05T15:59:29;11.90;;;3.17;;
9150;SDS011;4610;50.006;7.490;2023-01-05T16:01:58;11.80;;;2.40;;
9150;SDS011;4610;50.006;7.490;2023-01-05T16:04:25;11.43;;;2.53;;
9150;SDS011;4610;50.006;7.490;2023-01-05T16:06:57;15.50;;;2.63;;
9150;SDS011;4610;50.006;7.490;2023-01-05T16:09:29;7.07;;;2.43;;
9150;SDS011;4610;50.006;7.490;2023-01-05T16:11:59;18.43;;;3.43;;